sensor_id;sensor_type;location;lat;lon;timestamp;P1;durP1;ratioP1;P2;durP2;ratioP2
49590;SDS011;35496;-21.974;-46.800;2024-01-16T00:02:12;3.80;;;3.53;;
49590;SDS011;35496;-21.974;-46.800;2024-01-16T00:04:39;4.60;;;3.95;;
49590;SDS011;35496;-21.974;-46.800;2024-01-16T00:07:06;4.70;;;4.28;;
49590;SDS011;35496;-21.974;-46.800;2024-01-16T00:09:33;3.40;;;3.22;;
49590;SDS011;35496;-21.974;-46.800;2024-01-16T00:12:01;4.20;;;4.00;;
49590;SDS011;35496;-21.974;-46.800;2024-01-16T00:14:29;3.60;;;3.45;;
49590;SDS011;35496;-21.974;-46.800;2024-01-16T00:16:56;3.45;;;3.17;;
49590;SDS011;35496;-21.974;-46.800;2024-01-16T00:19:22;5.10;;;3.90;;
49590;SDS011;35496;-21.974;-46.800;2024-01-16T00:21:49;3.83;;;3.33;;
49590;SDS011;35496;-21.974;-46.800;2024-01-16T00:24:16;3.78;;;3.67;;
49590;SDS011;35496;-21.974;-46.800;2024-01-16T00:26:43;5.80;;;5.05;;
49590;SDS011;35496;-21.974;-46.800;2024-01-16T00:29:09;3.85;;;3.65;;
49590;SDS011;35496;-21.974;-46.800;2024-01-16T00:31:38;4.25;;;4.05;;
49590;SDS011;35496;-21.974;-46.800;2024-01-16T00:34:04;5.20;;;4.75;;
49590;SDS011;35496;-21.974;-46.800;2024-01-16T00:36:31;5.38;;;3.85;;
49590;SDS011;35496;-21.974;-46.800;2024-01-16T00:38:58;3.78;;;3.58;;
49590;SDS011;35496;-21.974;-46.800;2024-01-16T00:41:25;4.25;;;3.97;;
49590;SDS011;35496;-21.974;-46.800;2024-01-16T00:43:52;4.45;;;4.15;;
49590;SDS011;35496;-21.974;-46.800;2024-01-16T00:46:19;4.70;;;4.50;;
49590;SDS011;35496;-21.974;-46.800;2024-01-16T00:48:46;3.85;;;3.72;;
49590;SDS011;35496;-21.974;-46.800;2024-01-16T00:51:13;3.88;;;3.67;;
49590;SDS011;35496;-21.974;-46.800;2024-01-16T00:53:43;4.30;;;4.00;;
49590;SDS011;35496;-21.974;-46.800;2024-01-16T00:56:10;4.22;;;3.92;;
49590;SDS011;35496;-21.974;-46.800;2024-01-16T00:58:38;3.13;;;2.95;;
49590;SDS011;35496;-21.974;-46.800;2024-01-16T01:01:04;4.68;;;4.30;;
49590;SDS011;35496;-21.974;-46.800;2024-01-16T01:03:31;3.92;;;3.75;;
49590;SDS011;35496;-21.974;-46.800;2024-01-16T01:05:58;4.15;;;3.55;;
49590;SDS011;35496;-21.974;-46.800;2024-01-16T01:08:26;3.05;;;2.83;;
49590;SDS011;35496;-21.974;-46.800;2024-01-16T01:10:53;4.10;;;3.85;;
49590;SDS011;35496;-21.974;-46.800;2024-01-16T01:13:31;3.50;;;3.30;;
49590;SDS011;35496;-21.974;-46.800;2024-01-16T01:16:14;3.50;;;3.30;;
49590;SDS011;35496;-21.974;-46.800;2024-01-16T01:18:41;3.05;;;2.90;;
49590;SDS011;35496;-21.974;-46.800;2024-01-16T01:21:07;3.00;;;2.90;;
49590;SDS011;35496;-21.974;-46.800;2024-01-16T01:23:34;4.53;;;3.20;;
49590;SDS011;35496;-21.974;-46.800;2024-01-16T01:26:01;3.65;;;3.35;;
49590;SDS011;35496;-21.974;-46.800;2024-01-16T01:28:29;3.30;;;3.10;;
49590;SDS011;35496;-21.974;-46.800;2024-01-16T01:30:56;5.88;;;3.30;;
49590;SDS011;35496;-21.974;-46.800;2024-01-16T01:33:22;3.38;;;3.28;;
49590;SDS011;35496;-21.974;-46.800;2024-01-16T01:35:49;2.35;;;2.33;;
49590;SDS011;35496;-21.974;-46.800;2024-01-16T01:38:15;6.43;;;2.92;;
49590;SDS011;35496;-21.974;-46.800;2024-01-16T01:40:44;2.38;;;2.28;;
49590;SDS011;35496;-21.974;-46.800;2024-01-16T01:43:20;2.78;;;2.67;;
49590;SDS011;35496;-21.974;-46.800;2024-01-16T01:45:56;2.67;;;2.60;;
49590;SDS011;35496;-21.974;-46.800;2024-01-16T01:48:26;4.43;;;2.50;;
49590;SDS011;35496;-21.974;-46.800;2024-01-16T01:50:53;3.10;;;2.55;;
49590;SDS011;35496;-21.974;-46.800;2024-01-16T01:53:20;2.80;;;2.70;;
49590;SDS011;35496;-21.974;-46.800;2024-01-16T01:55:46;6.63;;;3.03;;
49590;SDS011;35496;-21.974;-46.800;2024-01-16T01:58:13;2.50;;;2.40;;
49590;SDS011;35496;-21.974;-46.800;2024-01-16T02:00:40;6.28;;;3.13;;
49590;SDS011;35496;-21.974;-46.800;2024-01-16T02:03:06;2.97;;;2.70;;
49590;SDS011;35496;-21.974;-46.800;2024-01-16T02:05:33;2.45;;;2.08;;
49590;SDS011;35496;-21.974;-46.800;2024-01-16T02:08:00;5.45;;;3.45;;
49590;SDS011;35496;-21.974;-46.800;2024-01-16T02:10:26;3.65;;;2.63;;
49590;SDS011;35496;-21.974;-46.800;2024-01-16T02:12:53;2.47;;;2.38;;
49590;SDS011;35496;-21.974;-46.800;2024-01-16T02:15:20;2.85;;;2.65;;
49590;SDS011;35496;-21.974;-46.800;2024-01-16T02:17:47;4.55;;;2.47;;
49590;SDS011;35496;-21.974;-46.800;2024-01-16T02:20:14;3.53;;;2.30;;
49590;SDS011;35496;-21.974;-46.800;2024-01-16T02:22:42;4.82;;;2.83;;
49590;SDS011;35496;-21.974;-46.800;2024-01-16T02:25:11;3.10;;;2.92;;
49590;SDS011;35496;-21.974;-46.800;2024-01-16T02:27:38;4.25;;;2.72;;
49590;SDS011;35496;-21.974;-46.800;2024-01-16T02:30:05;3.08;;;2.88;;
49590;SDS011;35496;-21.974;-46.800;2024-01-16T02:32:32;3.28;;;3.08;;
49590;SDS011;35496;-21.974;-46.800;2024-01-16T02:34:58;3.03;;;2.67;;
49590;SDS011;35496;-21.974;-46.800;2024-01-16T02:37:25;2.78;;;2.58;;
49590;SDS011;35496;-21.974;-46.800;2024-01-16T02:39:51;3.30;;;3.08;;
49590;SDS011;35496;-21.974;-46.800;2024-01-16T02:42:18;3.80;;;2.28;;
49590;SDS011;35496;-21.974;-46.800;2024-01-16T02:44:44;3.17;;;3.08;;
49590;SDS011;35496;-21.974;-46.800;2024-01-16T02:47:11;3.22;;;3.08;;
49590;SDS011;35496;-21.974;-46.800;2024-01-16T02:49:37;3.22;;;3.03;;
49590;SDS011;35496;-21.974;-46.800;2024-01-16T02:52:05;13.23;;;3.55;;
49590;SDS011;35496;-21.974;-46.800;2024-01-16T02:54:32;1.98;;;1.95;;
49590;SDS011;35496;-21.974;-46.800;2024-01-16T02:56:58;3.20;;;3.00;;
49590;SDS011;35496;-21.974;-46.800;2024-01-16T02:59:25;2.55;;;2.35;;
49590;SDS011;35496;-21.974;-46.800;2024-01-16T03:01:53;3.85;;;2.75;;
49590;SDS011;35496;-21.974;-46.800;2024-01-16T03:04:20;2.33;;;2.22;;
49590;SDS011;35496;-21.974;-46.800;2024-01-16T03:06:46;5.47;;;2.97;;
49590;SDS011;35496;-21.974;-46.800;2024-01-16T03:09:13;3.67;;;3.50;;
49590;SDS011;35496;-21.974;-46.800;2024-01-16T03:11:39;3.70;;;3.50;;
49590;SDS011;35496;-21.974;-46.800;2024-01-16T03:14:06;2.75;;;2.65;;
49590;SDS011;35496;-21.974;-46.800;2024-01-16T03:16:32;9.38;;;3.55;;
49590;SDS011;35496;-21.974;-46.800;2024-01-16T03:18:59;3.75;;;3.55;;
49590;SDS011;35496;-21.974;-46.800;2024-01-16T03:21:25;3.20;;;3.00;;
49590;SDS011;35496;-21.974;-46.800;2024-01-16T03:23:52;2.67;;;2.58;;
49590;SDS011;35496;-21.974;-46.800;2024-01-16T03:26:20;2.40;;;2.25;;
49590;SDS011;35496;-21.974;-46.800;2024-01-16T03:28:46;4.60;;;2.70;;
49590;SDS011;35496;-21.974;-46.800;2024-01-16T03:31:14;2.33;;;2.22;;
49590;SDS011;35496;-21.974;-46.800;2024-01-16T03:33:41;3.08;;;2.85;;
49590;SDS011;35496;-21.974;-46.800;2024-01-16T03:36:08;4.20;;;3.90;;
49590;SDS011;35496;-21.974;-46.800;2024-01-16T03:38:36;6.45;;;3.95;;
49590;SDS011;35496;-21.974;-46.800;2024-01-16T03:41:02;3.42;;;3.28;;
49590;SDS011;35496;-21.974;-46.800;2024-01-16T03:43:29;3.83;;;3.55;;
49590;SDS011;35496;-21.974;-46.800;2024-01-16T03:45:59;3.63;;;3.08;;
49590;SDS011;35496;-21.974;-46.800;2024-01-16T03:48:25;3.78;;;3.67;;
49590;SDS011;35496;-21.974;-46.800;2024-01-16T03:50:52;4.05;;;3.55;;
49590;SDS011;35496;-21.974;-46.800;2024-01-16T03:53:22;8.07;;;4.35;;
49590;SDS011;35496;-21.974;-46.800;2024-01-16T03:55:49;4.22;;;4.00;;
49590;SDS011;35496;-21.974;-46.800;2024-01-16T03:58:15;3.70;;;3.50;;
49590;SDS011;35496;-21.974;-46.800;2024-01-16T04:00:42;3.53;;;3.22;;
49590;SDS011;35496;-21.974;-46.800;2024-01-16T04:03:09;3.97;;;3.67;;
49590;SDS011;35496;-21.974;-46.800;2024-01-16T04:05:36;3.05;;;2.95;;
49590;SDS011;35496;-21.974;-46.800;2024-01-16T04:08:03;8.18;;;3.95;;
49590;SDS011;35496;-21.974;-46.800;2024-01-16T04:10:30;3.53;;;3.33;;
49590;SDS011;35496;-21.974;-46.800;2024-01-16T04:12:59;3.70;;;3.40;;
49590;SDS011;35496;-21.974;-46.800;2024-01-16T04:15:27;3.97;;;3.67;;
49590;SDS011;35496;-21.974;-46.800;2024-01-16T04:17:54;3.63;;;3.42;;
49590;SDS011;35496;-21.974;-46.800;2024-01-16T04:20:20;5.28;;;3.65;;
49590;SDS011;35496;-21.974;-46.800;2024-01-16T04:22:47;2.88;;;2.67;;
49590;SDS011;35496;-21.974;-46.800;2024-01-16T04:25:14;5.45;;;3.88;;
49590;SDS011;35496;-21.974;-46.800;2024-01-16T04:27:41;4.10;;;3.70;;
49590;SDS011;35496;-21.974;-46.800;2024-01-16T04:30:08;3.38;;;3.22;;
49590;SDS011;35496;-21.974;-46.800;2024-01-16T04:32:34;3.90;;;3.58;;
49590;SDS011;35496;-21.974;-46.800;2024-01-16T04:35:01;12.93;;;4.85;;
49590;SDS011;35496;-21.974;-46.800;2024-01-16T04:37:28;3.30;;;3.10;;
49590;SDS011;35496;-21.974;-46.800;2024-01-16T04:39:54;7.57;;;4.60;;
49590;SDS011;35496;-21.974;-46.800;2024-01-16T04:42:23;3.97;;;3.28;;
49590;SDS011;35496;-21.974;-46.800;2024-01-16T04:44:49;5.00;;;3.80;;
49590;SDS011;35496;-21.974;-46.800;2024-01-16T04:47:16;7.57;;;3.67;;
49590;SDS011;35496;-21.974;-46.800;2024-01-16T04:49:43;4.05;;;3.75;;
49590;SDS011;35496;-21.974;-46.800;2024-01-16T04:52:10;4.00;;;3.80;;
49590;SDS011;35496;-21.974;-46.800;2024-01-16T04:54:36;3.03;;;2.85;;
49590;SDS011;35496;-21.974;-46.800;2024-01-16T04:57:03;4.13;;;3.55;;
49590;SDS011;35496;-21.974;-46.800;2024-01-16T04:59:30;5.25;;;3.33;;
49590;SDS011;35496;-21.974;-46.800;2024-01-16T05:01:56;4.25;;;3.90;;
49590;SDS011;35496;-21.974;-46.800;2024-01-16T05:04:23;5.07;;;4.60;;
49590;SDS011;35496;-21.974;-46.800;2024-01-16T05:06:52;5.90;;;5.15;;
49590;SDS011;35496;-21.974;-46.800;2024-01-16T05:09:19;3.83;;;3.63;;
49590;SDS011;35496;-21.974;-46.800;2024-01-16T05:11:45;3.70;;;3.38;;
49590;SDS011;35496;-21.974;-46.800;2024-01-16T05:14:12;4.85;;;4.25;;
49590;SDS011;35496;-21.974;-46.800;2024-01-16T05:16:38;3.65;;;3.35;;
49590;SDS011;35496;-21.974;-46.800;2024-01-16T05:19:05;5.40;;;4.90;;
49590;SDS011;35496;-21.974;-46.800;2024-01-16T05:21:31;4.30;;;4.00;;
49590;SDS011;35496;-21.974;-46.800;2024-01-16T05:23:58;3.65;;;3.42;;
49590;SDS011;35496;-21.974;-46.800;2024-01-16T05:26:24;3.92;;;3.63;;
49590;SDS011;35496;-21.974;-46.800;2024-01-16T05:28:51;3.25;;;3.08;;
49590;SDS011;35496;-21.974;-46.800;2024-01-16T05:31:17;5.05;;;3.75;;
49590;SDS011;35496;-21.974;-46.800;2024-01-16T05:33:45;4.60;;;3.75;;
49590;SDS011;35496;-21.974;-46.800;2024-01-16T05:36:11;3.95;;;3.75;;
49590;SDS011;35496;-21.974;-46.800;2024-01-16T05:38:38;3.83;;;3.47;;
49590;SDS011;35496;-21.974;-46.800;2024-01-16T05:41:04;4.70;;;4.30;;
49590;SDS011;35496;-21.974;-46.800;2024-01-16T05:43:31;4.10;;;3.78;;
49590;SDS011;35496;-21.974;-46.800;2024-01-16T05:45:58;3.58;;;3.22;;
49590;SDS011;35496;-21.974;-46.800;2024-01-16T05:48:26;5.22;;;3.88;;
49590;SDS011;35496;-21.974;-46.800;2024-01-16T05:50:53;7.65;;;4.72;;
49590;SDS011;35496;-21.974;-46.800;2024-01-16T05:53:19;4.15;;;3.78;;
49590;SDS011;35496;-21.974;-46.800;2024-01-16T05:55:46;9.93;;;6.75;;
49590;SDS011;35496;-21.974;-46.800;2024-01-16T05:58:12;6.22;;;5.50;;
49590;SDS011;35496;-21.974;-46.800;2024-01-16T06:00:39;4.32;;;4.03;;
49590;SDS011;35496;-21.974;-46.800;2024-01-16T06:03:06;6.30;;;5.65;;
49590;SDS011;35496;-21.974;-46.800;2024-01-16T06:05:32;4.30;;;4.10;;
49590;SDS011;35496;-21.974;-46.800;2024-01-16T06:07:59;5.72;;;4.68;;
49590;SDS011;35496;-21.974;-46.800;2024-01-16T06:10:25;5.82;;;4.75;;
49590;SDS011;35496;-21.974;-46.800;2024-01-16T06:12:52;4.35;;;4.05;;
49590;SDS011;35496;-21.974;-46.800;2024-01-16T06:15:19;7.68;;;3.17;;
49590;SDS011;35496;-21.974;-46.800;2024-01-16T06:17:45;5.28;;;4.20;;
49590;SDS011;35496;-21.974;-46.800;2024-01-16T06:20:12;3.50;;;3.22;;
49590;SDS011;35496;-21.974;-46.800;2024-01-16T06:22:38;7.38;;;3.72;;
49590;SDS011;35496;-21.974;-46.800;2024-01-16T06:25:05;4.15;;;3.88;;
49590;SDS011;35496;-21.974;-46.800;2024-01-16T06:27:32;5.38;;;4.40;;
49590;SDS011;35496;-21.974;-46.800;2024-01-16T06:29:58;3.78;;;3.00;;
49590;SDS011;35496;-21.974;-46.800;2024-01-16T06:32:25;3.10;;;2.90;;
49590;SDS011;35496;-21.974;-46.800;2024-01-16T06:34:51;3.35;;;3.15;;
49590;SDS011;35496;-21.974;-46.800;2024-01-16T06:37:18;4.05;;;3.50;;
49590;SDS011;35496;-21.974;-46.800;2024-01-16T06:39:44;4.10;;;3.42;;
49590;SDS011;35496;-21.974;-46.800;2024-01-16T06:42:11;3.13;;;2.85;;
49590;SDS011;35496;-21.974;-46.800;2024-01-16T06:44:38;5.47;;;3.00;;
49590;SDS011;35496;-21.974;-46.800;2024-01-16T06:47:04;4.07;;;3.08;;
49590;SDS011;35496;-21.974;-46.800;2024-01-16T06:49:31;3.85;;;3.13;;
49590;SDS011;35496;-21.974;-46.800;2024-01-16T06:51:57;3.67;;;3.38;;
49590;SDS011;35496;-21.974;-46.800;2024-01-16T06:54:24;3.50;;;2.88;;
49590;SDS011;35496;-21.974;-46.800;2024-01-16T06:56:51;3.15;;;2.67;;
49590;SDS011;35496;-21.974;-46.800;2024-01-16T06:59:17;3.20;;;2.92;;
49590;SDS011;35496;-21.974;-46.800;2024-01-16T07:01:44;7.57;;;3.95;;
49590;SDS011;35496;-21.974;-46.800;2024-01-16T07:04:11;10.48;;;4.38;;
49590;SDS011;35496;-21.974;-46.800;2024-01-16T07:06:40;4.82;;;4.40;;
49590;SDS011;35496;-21.974;-46.800;2024-01-16T07:09:06;4.25;;;3.83;;
49590;SDS011;35496;-21.974;-46.800;2024-01-16T07:11:36;4.18;;;3.88;;
49590;SDS011;35496;-21.974;-46.800;2024-01-16T07:14:03;8.20;;;3.58;;
49590;SDS011;35496;-21.974;-46.800;2024-01-16T07:16:33;5.97;;;4.20;;
49590;SDS011;35496;-21.974;-46.800;2024-01-16T07:18:59;4.45;;;4.05;;
49590;SDS011;35496;-21.974;-46.800;2024-01-16T07:21:27;4.60;;;3.78;;
49590;SDS011;35496;-21.974;-46.800;2024-01-16T07:23:54;5.35;;;4.78;;
49590;SDS011;35496;-21.974;-46.800;2024-01-16T07:26:21;5.85;;;5.30;;
49590;SDS011;35496;-21.974;-46.800;2024-01-16T07:28:48;3.80;;;3.42;;
49590;SDS011;35496;-21.974;-46.800;2024-01-16T07:31:15;5.90;;;3.70;;
49590;SDS011;35496;-21.974;-46.800;2024-01-16T07:33:42;4.32;;;3.30;;
49590;SDS011;35496;-21.974;-46.800;2024-01-16T07:36:09;4.57;;;4.18;;
49590;SDS011;35496;-21.974;-46.800;2024-01-16T07:38:37;3.70;;;3.40;;
49590;SDS011;35496;-21.974;-46.800;2024-01-16T07:41:04;4.20;;;3.78;;
49590;SDS011;35496;-21.974;-46.800;2024-01-16T07:43:31;7.57;;;4.28;;
49590;SDS011;35496;-21.974;-46.800;2024-01-16T07:45:57;14.60;;;3.97;;
49590;SDS011;35496;-21.974;-46.800;2024-01-16T07:48:24;3.45;;;2.90;;
49590;SDS011;35496;-21.974;-46.800;2024-01-16T07:50:51;3.78;;;3.67;;
49590;SDS011;35496;-21.974;-46.800;2024-01-16T07:53:17;5.50;;;3.88;;
49590;SDS011;35496;-21.974;-46.800;2024-01-16T07:55:44;4.30;;;2.92;;
49590;SDS011;35496;-21.974;-46.800;2024-01-16T07:58:13;8.98;;;4.50;;
49590;SDS011;35496;-21.974;-46.800;2024-01-16T08:00:40;14.98;;;4.13;;
49590;SDS011;35496;-21.974;-46.800;2024-01-16T08:03:07;4.28;;;3.17;;
49590;SDS011;35496;-21.974;-46.800;2024-01-16T08:05:37;5.10;;;2.95;;
49590;SDS011;35496;-21.974;-46.800;2024-01-16T08:08:04;6.45;;;4.10;;
49590;SDS011;35496;-21.974;-46.800;2024-01-16T08:10:33;3.67;;;3.40;;
49590;SDS011;35496;-21.974;-46.800;2024-01-16T08:13:00;7.57;;;4.72;;
49590;SDS011;35496;-21.974;-46.800;2024-01-16T08:15:26;3.92;;;3.63;;
49590;SDS011;35496;-21.974;-46.800;2024-01-16T08:17:53;5.05;;;4.68;;
49590;SDS011;35496;-21.974;-46.800;2024-01-16T08:20:19;4.47;;;3.88;;
49590;SDS011;35496;-21.974;-46.800;2024-01-16T08:22:46;7.65;;;4.32;;
49590;SDS011;35496;-21.974;-46.800;2024-01-16T08:25:12;6.22;;;4.43;;
49590;SDS011;35496;-21.974;-46.800;2024-01-16T08:27:39;5.65;;;4.50;;
49590;SDS011;35496;-21.974;-46.800;2024-01-16T08:30:06;3.88;;;3.58;;
49590;SDS011;35496;-21.974;-46.800;2024-01-16T08:32:33;5.80;;;2.83;;
49590;SDS011;35496;-21.974;-46.800;2024-01-16T08:34:59;5.07;;;3.90;;
49590;SDS011;35496;-21.974;-46.800;2024-01-16T08:37:26;7.60;;;3.95;;
49590;SDS011;35496;-21.974;-46.800;2024-01-16T08:39:52;3.78;;;3.45;;
49590;SDS011;35496;-21.974;-46.800;2024-01-16T08:42:19;3.72;;;3.53;;
49590;SDS011;35496;-21.974;-46.800;2024-01-16T08:44:45;4.15;;;3.85;;
49590;SDS011;35496;-21.974;-46.800;2024-01-16T08:47:12;3.50;;;3.22;;
49590;SDS011;35496;-21.974;-46.800;2024-01-16T08:49:38;5.63;;;3.80;;
49590;SDS011;35496;-21.974;-46.800;2024-01-16T08:52:05;4.57;;;4.22;;
49590;SDS011;35496;-21.974;-46.800;2024-01-16T08:54:32;5.32;;;4.50;;
49590;SDS011;35496;-21.974;-46.800;2024-01-16T08:56:58;4.93;;;3.70;;
49590;SDS011;35496;-21.974;-46.800;2024-01-16T08:59:25;6.70;;;4.15;;
49590;SDS011;35496;-21.974;-46.800;2024-01-16T09:01:51;5.25;;;4.07;;
49590;SDS011;35496;-21.974;-46.800;2024-01-16T09:04:18;5.15;;;4.38;;
49590;SDS011;35496;-21.974;-46.800;2024-01-16T09:06:44;4.25;;;3.92;;
49590;SDS011;35496;-21.974;-46.800;2024-01-16T09:09:11;6.57;;;4.50;;
49590;SDS011;35496;-21.974;-46.800;2024-01-16T09:11:38;5.20;;;4.88;;
49590;SDS011;35496;-21.974;-46.800;2024-01-16T09:14:04;4.60;;;3.58;;
49590;SDS011;35496;-21.974;-46.800;2024-01-16T09:16:31;6.05;;;4.90;;
49590;SDS011;35496;-21.974;-46.800;2024-01-16T09:18:57;4.93;;;4.22;;
49590;SDS011;35496;-21.974;-46.800;2024-01-16T09:21:24;4.60;;;4.20;;
49590;SDS011;35496;-21.974;-46.800;2024-01-16T09:23:50;3.53;;;3.33;;
49590;SDS011;35496;-21.974;-46.800;2024-01-16T09:26:17;3.45;;;3.13;;
49590;SDS011;35496;-21.974;-46.800;2024-01-16T09:28:43;4.20;;;3.88;;
49590;SDS011;35496;-21.974;-46.800;2024-01-16T09:31:10;3.55;;;3.35;;
49590;SDS011;35496;-21.974;-46.800;2024-01-16T09:33:36;3.30;;;3.10;;
49590;SDS011;35496;-21.974;-46.800;2024-01-16T09:36:04;3.35;;;3.03;;
49590;SDS011;35496;-21.974;-46.800;2024-01-16T09:38:30;4.55;;;2.88;;
49590;SDS011;35496;-21.974;-46.800;2024-01-16T09:40:57;3.53;;;3.30;;
49590;SDS011;35496;-21.974;-46.800;2024-01-16T09:43:27;4.95;;;4.47;;
49590;SDS011;35496;-21.974;-46.800;2024-01-16T09:45:57;5.20;;;4.80;;
49590;SDS011;35496;-21.974;-46.800;2024-01-16T09:48:30;8.23;;;4.50;;
49590;SDS011;35496;-21.974;-46.800;2024-01-16T09:50:57;10.95;;;5.30;;
49590;SDS011;35496;-21.974;-46.800;2024-01-16T09:53:23;4.40;;;4.07;;
49590;SDS011;35496;-21.974;-46.800;2024-01-16T09:55:50;4.43;;;3.70;;
49590;SDS011;35496;-21.974;-46.800;2024-01-16T09:58:20;8.32;;;5.32;;
49590;SDS011;35496;-21.974;-46.800;2024-01-16T10:00:47;4.82;;;4.32;;
49590;SDS011;35496;-21.974;-46.800;2024-01-16T10:03:14;4.70;;;4.43;;
49590;SDS011;35496;-21.974;-46.800;2024-01-16T10:05:41;6.10;;;5.07;;
49590;SDS011;35496;-21.974;-46.800;2024-01-16T10:08:08;5.43;;;4.93;;
49590;SDS011;35496;-21.974;-46.800;2024-01-16T10:10:35;7.68;;;3.92;;
49590;SDS011;35496;-21.974;-46.800;2024-01-16T10:13:01;4.45;;;3.97;;
49590;SDS011;35496;-21.974;-46.800;2024-01-16T10:15:30;6.75;;;3.90;;
49590;SDS011;35496;-21.974;-46.800;2024-01-16T10:17:57;4.63;;;4.43;;
49590;SDS011;35496;-21.974;-46.800;2024-01-16T10:20:34;4.05;;;3.85;;
49590;SDS011;35496;-21.974;-46.800;2024-01-16T10:23:01;4.13;;;3.70;;
49590;SDS011;35496;-21.974;-46.800;2024-01-16T10:25:31;3.03;;;2.83;;
49590;SDS011;35496;-21.974;-46.800;2024-01-16T10:28:04;4.13;;;3.15;;
49590;SDS011;35496;-21.974;-46.800;2024-01-16T10:30:33;4.10;;;3.53;;
49590;SDS011;35496;-21.974;-46.800;2024-01-16T10:33:12;9.00;;;3.75;;
49590;SDS011;35496;-21.974;-46.800;2024-01-16T10:35:42;5.53;;;4.30;;
49590;SDS011;35496;-21.974;-46.800;2024-01-16T10:38:09;4.53;;;4.25;;
49590;SDS011;35496;-21.974;-46.800;2024-01-16T10:40:35;4.47;;;3.25;;
49590;SDS011;35496;-21.974;-46.800;2024-01-16T10:43:03;3.20;;;3.10;;
49590;SDS011;35496;-21.974;-46.800;2024-01-16T10:45:30;2.78;;;2.60;;
49590;SDS011;35496;-21.974;-46.800;2024-01-16T10:48:01;3.00;;;2.90;;
49590;SDS011;35496;-21.974;-46.800;2024-01-16T10:50:34;3.50;;;3.20;;
49590;SDS011;35496;-21.974;-46.800;2024-01-16T10:53:06;3.22;;;2.92;;
49590;SDS011;35496;-21.974;-46.800;2024-01-16T10:58:22;2.90;;;2.65;;
49590;SDS011;35496;-21.974;-46.800;2024-01-16T11:04:04;2.90;;;2.67;;
49590;SDS011;35496;-21.974;-46.800;2024-01-16T11:06:08;5.10;;;2.63;;
49590;SDS011;35496;-21.974;-46.800;2024-01-16T11:08:36;2.40;;;2.30;;
49590;SDS011;35496;-21.974;-46.800;2024-01-16T11:11:03;10.63;;;3.88;;
49590;SDS011;35496;-21.974;-46.800;2024-01-16T11:13:31;3.45;;;2.90;;
49590;SDS011;35496;-21.974;-46.800;2024-01-16T11:15:59;2.53;;;2.33;;
49590;SDS011;35496;-21.974;-46.800;2024-01-16T11:18:26;3.85;;;3.55;;
49590;SDS011;35496;-21.974;-46.800;2024-01-16T11:20:54;3.63;;;3.42;;
49590;SDS011;35496;-21.974;-46.800;2024-01-16T11:23:20;3.30;;;2.90;;
49590;SDS011;35496;-21.974;-46.800;2024-01-16T11:25:47;2.88;;;2.78;;
49590;SDS011;35496;-21.974;-46.800;2024-01-16T11:28:14;3.80;;;3.15;;
49590;SDS011;35496;-21.974;-46.800;2024-01-16T11:30:41;3.15;;;3.03;;
49590;SDS011;35496;-21.974;-46.800;2024-01-16T11:35:57;6.28;;;2.85;;
49590;SDS011;35496;-21.974;-46.800;2024-01-16T11:38:25;3.10;;;2.97;;
49590;SDS011;35496;-21.974;-46.800;2024-01-16T11:40:54;2.60;;;2.58;;
49590;SDS011;35496;-21.974;-46.800;2024-01-16T11:46:07;2.65;;;2.50;;
49590;SDS011;35496;-21.974;-46.800;2024-01-16T11:48:34;2.70;;;2.60;;
49590;SDS011;35496;-21.974;-46.800;2024-01-16T11:51:22;2.60;;;2.50;;
49590;SDS011;35496;-21.974;-46.800;2024-01-16T11:53:50;3.15;;;3.03;;
49590;SDS011;35496;-21.974;-46.800;2024-01-16T12:02:01;2.95;;;2.85;;
49590;SDS011;35496;-21.974;-46.800;2024-01-16T12:04:29;3.20;;;3.00;;
49590;SDS011;35496;-21.974;-46.800;2024-01-16T12:06:59;2.53;;;2.42;;
49590;SDS011;35496;-21.974;-46.800;2024-01-16T12:09:26;3.88;;;3.13;;
49590;SDS011;35496;-21.974;-46.800;2024-01-16T12:12:00;2.60;;;2.50;;
49590;SDS011;35496;-21.974;-46.800;2024-01-16T12:14:28;2.88;;;2.67;;
49590;SDS011;35496;-21.974;-46.800;2024-01-16T12:17:13;2.70;;;2.60;;
49590;SDS011;35496;-21.974;-46.800;2024-01-16T12:19:41;2.97;;;2.88;;
49590;SDS011;35496;-21.974;-46.800;2024-01-16T12:22:08;2.53;;;2.42;;
49590;SDS011;35496;-21.974;-46.800;2024-01-16T12:24:36;2.85;;;2.70;;
49590;SDS011;35496;-21.974;-46.800;2024-01-16T12:27:03;2.80;;;2.78;;
49590;SDS011;35496;-21.974;-46.800;2024-01-16T12:29:31;2.15;;;2.05;;
49590;SDS011;35496;-21.974;-46.800;2024-01-16T12:32:05;2.58;;;2.47;;
49590;SDS011;35496;-21.974;-46.800;2024-01-16T12:34:38;2.42;;;2.33;;
49590;SDS011;35496;-21.974;-46.800;2024-01-16T12:37:13;2.22;;;2.08;;
49590;SDS011;35496;-21.974;-46.800;2024-01-16T12:39:40;4.13;;;2.53;;
49590;SDS011;35496;-21.974;-46.800;2024-01-16T12:42:07;3.13;;;3.03;;
49590;SDS011;35496;-21.974;-46.800;2024-01-16T12:44:37;2.90;;;2.80;;
49590;SDS011;35496;-21.974;-46.800;2024-01-16T12:47:04;3.20;;;3.00;;
49590;SDS011;35496;-21.974;-46.800;2024-01-16T12:49:31;2.97;;;2.88;;
49590;SDS011;35496;-21.974;-46.800;2024-01-16T12:52:17;2.95;;;2.78;;
49590;SDS011;35496;-21.974;-46.800;2024-01-16T12:54:46;3.17;;;3.05;;
49590;SDS011;35496;-21.974;-46.800;2024-01-16T12:57:17;3.55;;;3.45;;
49590;SDS011;35496;-21.974;-46.800;2024-01-16T12:59:45;3.25;;;3.15;;
49590;SDS011;35496;-21.974;-46.800;2024-01-16T13:02:19;3.17;;;3.08;;
49590;SDS011;35496;-21.974;-46.800;2024-01-16T13:04:47;2.95;;;2.88;;
49590;SDS011;35496;-21.974;-46.800;2024-01-16T13:07:17;3.33;;;3.22;;
49590;SDS011;35496;-21.974;-46.800;2024-01-16T13:09:44;4.07;;;3.03;;
49590;SDS011;35496;-21.974;-46.800;2024-01-16T13:12:10;3.35;;;3.15;;
49590;SDS011;35496;-21.974;-46.800;2024-01-16T13:14:46;3.00;;;2.90;;
49590;SDS011;35496;-21.974;-46.800;2024-01-16T13:17:12;2.72;;;2.65;;
49590;SDS011;35496;-21.974;-46.800;2024-01-16T13:19:39;2.45;;;2.33;;
49590;SDS011;35496;-21.974;-46.800;2024-01-16T13:22:07;3.75;;;3.65;;
49590;SDS011;35496;-21.974;-46.800;2024-01-16T13:24:33;2.30;;;2.30;;
49590;SDS011;35496;-21.974;-46.800;2024-01-16T13:27:01;2.40;;;2.20;;
49590;SDS011;35496;-21.974;-46.800;2024-01-16T13:29:29;2.33;;;2.22;;
49590;SDS011;35496;-21.974;-46.800;2024-01-16T13:32:00;2.95;;;2.85;;
49590;SDS011;35496;-21.974;-46.800;2024-01-16T13:34:27;2.75;;;2.08;;
49590;SDS011;35496;-21.974;-46.800;2024-01-16T13:36:54;2.53;;;2.42;;
49590;SDS011;35496;-21.974;-46.800;2024-01-16T13:39:25;2.20;;;2.10;;
49590;SDS011;35496;-21.974;-46.800;2024-01-16T13:41:52;2.47;;;2.45;;
49590;SDS011;35496;-21.974;-46.800;2024-01-16T13:44:19;2.55;;;2.40;;
49590;SDS011;35496;-21.974;-46.800;2024-01-16T13:46:46;2.20;;;2.17;;
49590;SDS011;35496;-21.974;-46.800;2024-01-16T13:49:13;2.67;;;2.50;;
49590;SDS011;35496;-21.974;-46.800;2024-01-16T13:51:39;2.30;;;2.30;;
49590;SDS011;35496;-21.974;-46.800;2024-01-16T13:54:10;2.67;;;2.50;;
49590;SDS011;35496;-21.974;-46.800;2024-01-16T13:56:37;2.45;;;2.38;;
49590;SDS011;35496;-21.974;-46.800;2024-01-16T13:59:04;2.22;;;2.13;;
49590;SDS011;35496;-21.974;-46.800;2024-01-16T14:01:31;2.25;;;2.25;;
49590;SDS011;35496;-21.974;-46.800;2024-01-16T14:03:58;2.05;;;1.95;;
49590;SDS011;35496;-21.974;-46.800;2024-01-16T14:06:25;2.72;;;2.53;;
49590;SDS011;35496;-21.974;-46.800;2024-01-16T14:08:51;2.22;;;2.22;;
49590;SDS011;35496;-21.974;-46.800;2024-01-16T14:11:18;2.30;;;2.20;;
49590;SDS011;35496;-21.974;-46.800;2024-01-16T14:13:45;2.80;;;2.60;;
49590;SDS011;35496;-21.974;-46.800;2024-01-16T14:16:12;2.45;;;2.40;;
49590;SDS011;35496;-21.974;-46.800;2024-01-16T14:18:39;2.58;;;2.58;;
49590;SDS011;35496;-21.974;-46.800;2024-01-16T14:21:05;2.38;;;2.38;;
49590;SDS011;35496;-21.974;-46.800;2024-01-16T14:23:32;2.80;;;2.70;;
49590;SDS011;35496;-21.974;-46.800;2024-01-16T14:25:58;3.17;;;3.08;;
49590;SDS011;35496;-21.974;-46.800;2024-01-16T14:28:25;6.30;;;3.00;;